Ana Sayfa
METAR-TAF:

METAR-TAF

Havaalanları :

Newberry, Michigan, Amerika Birleşik Devletleri

Enlem: 46-18-40N, Boylam: 085-27-26W, yükseklik: 265 m

Güncel hava durumu gözlemi

Rapor saat 15:55 UTC de 26 dakika önce yapıldı.
Rüzgar batıdan 6 kt
Sıcaklık 4°C
Nem 60%
Basınç 1012 hPa
Görüş mesafesi: 3.2 km
3100 ft yükseklikte parçalı bulutlu
Toz Pusu

METAR: KERY 241555Z AUTO 28006KT 2SM HZ SCT031 04/M03 A2988 RMK AO2 VIS 1V5 T00361034

Saat: 11:21 (16:21 UTC)


TAF: eksik

4.000'den fazla havaalanı için hava durumu gözlemleri ve tahminleri (METAR ve TAF raporları).

Kullanılabilir istasyonlar harita üzerinde sarı ve kırmızı noktalarla gösterilir.

İstasyonun adını görmek için fareyi noktanın üzerinde gezdirin.

Sonrasında hava gözlem ve tahminlerini görmek için tıklayın.

Haritayı değiştirmek için: yaklaştırmak için siyah artı işaretli yeşil düğmeye ve uzaklaştırmak için de eksi işaretli düğmeye hızla tıklayın; bitişik haritalar için yeşil okları kullanın.


METAR-TAF: